Time;durP1;ratioP1;P1;durP2;ratioP2;P2;SDS_P1;SDS_P2;PMS_P1;PMS_P2;Temp;Humidity;BMP_temperature;BMP_pressure;BME280_temperature;BME280_humidity;BME280_pressure;Samples;Min_cycle;Max_cycle;Signal;HPM_P1;HPM_P2
2024/01/20 00:00:28;;;;;;;29.67;10.27;;;;;;;-0.16;88.36;101153.97;5953191;23;20047;-86
2024/01/20 00:02:54;;;;;;;21.33;9.57;;;;;;;-0.16;88.05;101153.97;5976926;23;20103;-86
2024/01/20 00:05:21;;;;;;;25.80;9.68;;;;;;;-0.17;88.03;101143.59;5949023;23;20326;-86
2024/01/20 00:07:48;;;;;;;27.48;9.35;;;;;;;-0.18;88.26;101132.25;5926292;23;20096;-86
2024/01/20 00:10:15;;;;;;;24.45;9.80;;;;;;;-0.15;89.00;101134.81;5973338;23;20027;-86
2024/01/20 00:12:42;;;;;;;23.65;9.63;;;;;;;-0.20;89.28;101138.41;5948851;23;20020;-85
2024/01/20 00:15:11;;;;;;;21.83;8.75;;;;;;;-0.18;89.26;101134.88;5953093;23;20051;-86
2024/01/20 00:17:39;;;;;;;21.45;9.38;;;;;;;-0.18;89.49;101136.63;5954462;23;20484;-85
2024/01/20 00:20:08;;;;;;;21.35;9.60;;;;;;;-0.22;89.64;101139.31;5951348;23;20028;-85
2024/01/20 00:22:36;;;;;;;24.70;11.07;;;;;;;-0.18;89.38;101139.25;5999048;23;20016;-86
2024/01/20 00:25:03;;;;;;;25.08;10.52;;;;;;;-0.18;89.01;101140.09;5999534;23;20027;-85
2024/01/20 00:27:30;;;;;;;28.05;12.90;;;;;;;-0.15;88.62;101141.78;5952936;23;20418;-86
2024/01/20 00:29:58;;;;;;;28.48;12.10;;;;;;;-0.14;87.99;101148.72;5953255;23;20344;-87
2024/01/20 00:32:26;;;;;;;22.10;10.73;;;;;;;-0.10;87.42;101150.38;5976990;23;20083;-86
2024/01/20 00:34:53;;;;;;;31.10;10.38;;;;;;;-0.10;86.93;101155.59;6000184;23;20062;-86
2024/01/20 00:37:33;;;;;;;27.27;11.07;;;;;;;-0.13;86.62;101158.28;5978627;23;20026;-86
2024/01/20 00:40:01;;;;;;;25.15;10.80;;;;;;;-0.15;86.17;101160.06;5999283;23;20038;-87
2024/01/20 00:42:29;;;;;;;30.73;11.77;;;;;;;-0.14;86.06;101160.03;5975899;23;20020;-86
2024/01/20 00:44:55;;;;;;;27.80;12.23;;;;;;;-0.12;85.88;101162.63;5999607;23;20031;-86
2024/01/20 00:47:22;;;;;;;23.77;11.07;;;;;;;-0.10;85.45;101164.28;5977010;23;20048;-86
2024/01/20 00:49:49;;;;;;;20.25;9.45;;;;;;;-0.13;85.33;101172.19;5975213;23;20027;-87
2024/01/20 00:52:16;;;;;;;24.13;11.00;;;;;;;-0.10;85.02;101161.69;5976562;23;20019;-86
2024/01/20 00:54:42;;;;;;;26.33;9.80;;;;;;;-0.16;84.74;101158.34;5953306;23;20023;-86
2024/01/20 00:57:09;;;;;;;26.70;11.15;;;;;;;-0.13;85.10;101155.66;5953232;23;20046;-86
2024/01/20 00:59:36;;;;;;;23.45;10.35;;;;;;;-0.15;84.73;101163.53;5975681;23;20091;-86
2024/01/20 01:02:03;;;;;;;23.33;11.63;;;;;;;-0.19;84.57;101163.66;5925299;23;20513;-86
2024/01/20 01:04:30;;;;;;;24.88;12.02;;;;;;;-0.15;84.63;101168.78;5947838;23;20453;-86
2024/01/20 01:06:56;;;;;;;28.27;12.30;;;;;;;-0.18;85.08;101176.66;5971371;23;20409;-87
2024/01/20 01:09:23;;;;;;;26.08;11.05;;;;;;;-0.15;85.36;101175.72;5970831;23;20565;-86
2024/01/20 01:11:50;;;;;;;30.95;11.25;;;;;;;-0.22;85.46;101182.84;5948017;23;20457;-86
2024/01/20 01:14:17;;;;;;;28.05;12.35;;;;;;;-0.19;85.70;101189.75;5949388;23;20024;-86
2024/01/20 01:16:43;;;;;;;24.52;11.18;;;;;;;-0.17;85.53;101199.25;5925392;23;20048;-86
2024/01/20 01:19:10;;;;;;;23.17;10.00;;;;;;;-0.20;85.47;101194.13;5948423;23;20016;-86
2024/01/20 01:21:37;;;;;;;25.40;10.13;;;;;;;-0.13;85.06;101207.88;5925412;23;20453;-86
2024/01/20 01:24:04;;;;;;;22.10;11.07;;;;;;;-0.16;84.58;101210.56;5925538;23;20020;-87
2024/01/20 01:26:31;;;;;;;22.42;11.10;;;;;;;-0.16;84.79;101205.34;5925462;23;20103;-86
2024/01/20 01:28:59;;;;;;;22.70;10.57;;;;;;;-0.16;84.71;101200.97;5925270;23;20084;-86
2024/01/20 01:31:26;;;;;;;20.63;9.60;;;;;;;-0.16;84.70;101203.59;5948130;23;20429;-86
2024/01/20 01:33:53;;;;;;;20.10;9.85;;;;;;;-0.14;84.21;101203.56;5947897;23;20457;-86
2024/01/20 01:36:20;;;;;;;22.05;9.80;;;;;;;-0.18;83.98;101201.91;5948071;23;20030;-86
2024/01/20 01:38:47;;;;;;;25.50;10.95;;;;;;;-0.22;84.19;101204.59;5924639;23;20024;-86
2024/01/20 01:41:13;;;;;;;23.27;9.95;;;;;;;-0.25;84.80;101199.44;5924924;23;20054;-86
2024/01/20 01:43:40;;;;;;;22.15;10.30;;;;;;;-0.26;84.69;101194.22;5924895;23;20051;-86
2024/01/20 01:46:07;;;;;;;25.65;11.02;;;;;;;-0.23;84.78;101208.09;5948477;23;20453;-86
2024/01/20 01:48:34;;;;;;;24.30;10.57;;;;;;;-0.21;84.72;101200.22;5947817;23;20028;-86
2024/01/20 01:51:04;;;;;;;17.42;9.15;;;;;;;-0.20;84.53;101206.28;5924937;23;20461;-86
2024/01/20 01:53:34;;;;;;;19.85;9.52;;;;;;;-0.23;84.30;101202.00;5970851;23;20084;-87
2024/01/20 01:56:02;;;;;;;22.42;10.13;;;;;;;-0.18;84.26;101212.34;5971174;23;20111;-86
2024/01/20 01:58:28;;;;;;;21.10;9.70;;;;;;;-0.24;84.19;101202.91;5924318;23;20348;-86
2024/01/20 02:00:55;;;;;;;21.80;9.98;;;;;;;-0.26;84.34;101202.91;5924804;23;20610;-86
2024/01/20 02:03:22;;;;;;;23.77;11.32;;;;;;;-0.24;84.51;101193.31;5924472;23;20028;-87
2024/01/20 02:05:50;;;;;;;26.50;10.07;;;;;;;-0.27;83.39;101196.00;5924768;23;20657;-86
2024/01/20 02:08:17;;;;;;;22.52;10.52;;;;;;;-0.23;83.42;101208.09;5947499;23;20713;-87
2024/01/20 02:10:46;;;;;;;23.33;10.13;;;;;;;-0.25;83.29;101207.25;5947507;23;20028;-87
2024/01/20 02:13:13;;;;;;;26.35;11.15;;;;;;;-0.20;83.49;101211.50;5948225;23;20095;-86
2024/01/20 02:15:40;;;;;;;23.77;10.52;;;;;;;-0.23;83.80;101209.81;5948471;23;20020;-86
2024/01/20 02:18:07;;;;;;;21.75;10.80;;;;;;;-0.24;83.62;101210.72;5924210;23;20080;-86
2024/01/20 02:20:34;;;;;;;22.02;11.25;;;;;;;-0.29;83.91;101215.19;5924655;23;20044;-85
2024/01/20 02:23:00;;;;;;;28.83;12.10;;;;;;;-0.30;84.04;101214.34;5948550;23;20032;-85
2024/01/20 02:25:27;;;;;;;29.60;11.77;;;;;;;-0.29;84.05;101220.41;5925548;23;20031;-85
2024/01/20 02:27:54;;;;;;;23.50;11.02;;;;;;;-0.30;84.10;101219.56;5948443;23;20449;-85
2024/01/20 02:30:21;;;;;;;23.27;10.98;;;;;;;-0.40;84.54;101218.03;5925539;23;20032;-85
2024/01/20 02:32:48;;;;;;;23.17;10.32;;;;;;;-0.36;84.72;101214.44;5947630;23;20028;-85
2024/01/20 02:35:18;;;;;;;27.17;11.07;;;;;;;-0.34;85.00;101210.06;5971209;23;20401;-85
2024/01/20 02:37:45;;;;;;;24.48;9.55;;;;;;;-0.34;85.23;101219.66;5925483;23;20032;-85
2024/01/20 02:40:12;;;;;;;26.75;11.25;;;;;;;-0.37;85.65;101220.56;5926330;23;20031;-85
2024/01/20 02:42:39;;;;;;;26.60;11.07;;;;;;;-0.33;85.86;101217.03;5949209;23;20095;-85
2024/01/20 02:45:06;;;;;;;25.95;10.35;;;;;;;-0.35;85.84;101231.00;5927302;23;20071;-85
2024/01/20 02:47:33;;;;;;;28.10;10.88;;;;;;;-0.37;86.41;101232.78;5927109;23;20023;-86
2024/01/20 02:50:00;;;;;;;23.90;10.75;;;;;;;-0.38;86.93;101234.53;5948610;23;20686;-85
2024/01/20 02:52:27;;;;;;;30.20;11.52;;;;;;;-0.35;86.69;101228.38;5949690;23;20476;-85
2024/01/20 02:54:53;;;;;;;23.52;12.05;;;;;;;-0.35;86.13;101225.78;5972014;23;20100;-85
2024/01/20 02:57:20;;;;;;;29.77;11.25;;;;;;;-0.34;86.01;101220.50;5949441;23;20124;-85
2024/01/20 02:59:47;;;;;;;29.27;13.30;;;;;;;-0.34;85.62;101225.72;5926270;23;20346;-85
2024/01/20 03:02:14;;;;;;;31.02;13.45;;;;;;;-0.31;85.32;101230.88;5949334;23;20103;-85
2024/01/20 03:04:41;;;;;;;27.60;12.80;;;;;;;-0.29;85.34;101230.84;5948646;23;20481;-86
2024/01/20 03:07:08;;;;;;;28.67;13.27;;;;;;;-0.32;85.04;101223.94;5948936;23;20024;-85
2024/01/20 03:09:34;;;;;;;31.83;15.02;;;;;;;-0.28;84.76;101225.59;5925422;23;20024;-84
2024/01/20 03:12:01;;;;;;;37.63;15.30;;;;;;;-0.26;84.88;101226.41;5949606;23;20115;-85
2024/01/20 03:14:28;;;;;;;33.78;12.50;;;;;;;-0.28;84.41;101228.22;5972245;23;20024;-85
2024/01/20 03:16:55;;;;;;;29.67;13.82;;;;;;;-0.27;84.63;101229.94;5949126;23;20031;-85
2024/01/20 03:19:22;;;;;;;29.33;12.68;;;;;;;-0.30;84.80;101222.16;5948764;23;20108;-85
2024/01/20 03:21:49;;;;;;;32.90;13.50;;;;;;;-0.31;85.01;101219.56;5948189;23;20035;-85
2024/01/20 03:24:19;;;;;;;31.20;12.82;;;;;;;-0.29;84.48;101223.03;5926571;23;20048;-85
2024/01/20 03:26:49;;;;;;;30.85;14.25;;;;;;;-0.25;84.41;101225.53;5947847;23;20107;-85
2024/01/20 03:29:16;;;;;;;27.25;14.13;;;;;;;-0.26;84.17;101225.56;5948081;23;20456;-85
2024/01/20 03:31:43;;;;;;;30.80;14.23;;;;;;;-0.27;83.75;101229.06;5926229;23;20016;-85
2024/01/20 03:34:10;;;;;;;25.23;12.82;;;;;;;-0.26;83.31;101236.84;5949013;23;20028;-84
2024/01/20 03:36:37;;;;;;;32.42;13.27;;;;;;;-0.24;83.27;101239.44;5926495;23;20107;-85
2024/01/20 03:39:04;;;;;;;27.85;12.25;;;;;;;-0.26;83.14;101239.47;5925642;23;20016;-84
2024/01/20 03:41:31;;;;;;;25.85;13.85;;;;;;;-0.32;83.34;101255.25;5925534;23;20084;-85
2024/01/20 03:43:57;;;;;;;31.33;14.68;;;;;;;-0.35;83.37;101250.13;5926536;23;20034;-85
2024/01/20 03:46:24;;;;;;;29.98;13.40;;;;;;;-0.38;83.43;101260.63;5904076;23;20410;-85
2024/01/20 03:48:51;;;;;;;25.55;12.75;;;;;;;-0.40;83.85;101258.94;5970465;23;20051;-85
2024/01/20 03:51:18;;;;;;;27.15;13.85;;;;;;;-0.36;83.62;101258.81;5949351;23;20020;-85
2024/01/20 03:53:45;;;;;;;29.60;14.80;;;;;;;-0.30;83.40;101268.28;5948739;23;20593;-84
2024/01/20 03:56:12;;;;;;;30.55;13.27;;;;;;;-0.31;82.87;101263.94;5926412;23;20060;-85
2024/01/20 03:58:39;;;;;;;24.98;13.07;;;;;;;-0.27;82.98;101268.22;5973131;23;20019;-85
2024/01/20 04:01:05;;;;;;;30.42;13.85;;;;;;;-0.28;83.00;101267.38;5975513;23;20030;-85
2024/01/20 04:03:33;;;;;;;26.10;13.02;;;;;;;-0.33;83.24;101261.38;5975643;23;20028;-85
2024/01/20 04:06:00;;;;;;;32.55;13.82;;;;;;;-0.27;82.85;101268.22;6002477;23;20020;-85
2024/01/20 04:08:26;;;;;;;31.92;12.98;;;;;;;-0.31;82.31;101263.94;5976297;23;20102;-85
2024/01/20 04:10:53;;;;;;;25.92;11.75;;;;;;;-0.30;82.02;101268.28;5952770;23;20030;-85
2024/01/20 04:13:20;;;;;;;29.10;13.27;;;;;;;-0.37;82.13;101267.56;6000728;23;20490;-84
2024/01/20 04:15:47;;;;;;;30.00;13.43;;;;;;;-0.31;82.37;101267.41;5953163;23;20024;-84
2024/01/20 04:18:13;;;;;;;27.05;12.95;;;;;;;-0.38;81.85;101273.66;5999076;23;20047;-85
2024/01/20 04:20:41;;;;;;;26.85;13.52;;;;;;;-0.35;81.84;101272.75;5999779;23;20736;-84
2024/01/20 04:23:08;;;;;;;27.40;13.05;;;;;;;-0.35;82.05;101272.75;5954024;23;20099;-84
2024/01/20 04:25:34;;;;;;;29.73;13.70;;;;;;;-0.38;81.45;101271.06;6000523;23;20023;-84
2024/01/20 04:28:01;;;;;;;26.95;13.95;;;;;;;-0.37;81.46;101271.91;5952924;23;20052;-85
2024/01/20 04:30:28;;;;;;;29.25;12.40;;;;;;;-0.36;81.37;101274.47;5953289;23;20337;-84
2024/01/20 04:32:55;;;;;;;29.35;12.82;;;;;;;-0.35;80.90;101278.81;5976915;23;20019;-84
2024/01/20 04:35:22;;;;;;;23.65;12.68;;;;;;;-0.36;81.12;101281.44;5975800;23;20019;-84
2024/01/20 04:37:48;;;;;;;27.90;12.98;;;;;;;-0.37;81.22;101280.59;5975831;23;20483;-84
2024/01/20 04:40:15;;;;;;;31.08;12.63;;;;;;;-0.38;81.46;101289.34;5999240;23;20106;-84
2024/01/20 04:42:42;;;;;;;24.80;12.63;;;;;;;-0.39;81.59;101290.19;5976418;23;20123;-85
2024/01/20 04:45:11;;;;;;;34.40;13.65;;;;;;;-0.38;81.06;101297.16;5976671;23;20048;-85
2024/01/20 04:47:37;;;;;;;36.97;16.25;;;;;;;-0.39;81.37;101298.03;5971413;23;20102;-84
2024/01/20 04:50:05;;;;;;;29.60;13.05;;;;;;;-0.40;81.29;101298.94;5974511;23;20024;-85
2024/01/20 04:52:31;;;;;;;27.23;14.15;;;;;;;-0.39;80.86;101298.03;5975780;23;20028;-85
2024/01/20 04:54:58;;;;;;;25.48;12.68;;;;;;;-0.40;80.81;101285.88;5976711;23;20019;-85
2024/01/20 04:57:25;;;;;;;26.42;12.07;;;;;;;-0.46;80.13;101289.47;5975480;23;20607;-85
2024/01/20 04:59:52;;;;;;;28.63;12.85;;;;;;;-0.45;80.37;101295.56;5997869;23;20028;-85
2024/01/20 05:02:18;;;;;;;25.13;13.23;;;;;;;-0.46;80.87;101291.22;5976227;23;20032;-84
2024/01/20 05:04:45;;;;;;;30.70;13.57;;;;;;;-0.48;80.86;101300.84;5974372;23;20031;-83
2024/01/20 05:07:12;;;;;;;28.42;13.30;;;;;;;-0.50;81.29;101297.41;5954041;23;20356;-85
2024/01/20 05:09:39;;;;;;;28.27;12.75;;;;;;;-0.52;80.91;101302.63;5951338;23;20445;-84
2024/01/20 05:12:06;;;;;;;27.42;12.35;;;;;;;-0.50;81.11;101308.69;5953503;23;20064;-84
2024/01/20 05:14:33;;;;;;;23.02;11.35;;;;;;;-0.47;81.24;101308.63;5976565;23;20695;-84
2024/01/20 05:17:00;;;;;;;30.05;12.90;;;;;;;-0.46;80.86;101315.56;5976169;23;20051;-85
2024/01/20 05:19:26;;;;;;;25.77;13.45;;;;;;;-0.46;81.15;101320.78;5975120;23;20038;-85
2024/01/20 05:21:53;;;;;;;28.77;12.38;;;;;;;-0.48;80.69;101321.72;5976346;23;20031;-84
2024/01/20 05:24:20;;;;;;;27.98;11.88;;;;;;;-0.50;80.76;101326.94;5953276;23;20103;-85
2024/01/20 05:26:46;;;;;;;30.80;13.98;;;;;;;-0.55;80.80;101320.97;5975798;23;20023;-85
2024/01/20 05:29:13;;;;;;;30.25;14.13;;;;;;;-0.57;81.15;101321.88;5998582;23;20027;-84
2024/01/20 05:31:40;;;;;;;32.35;13.95;;;;;;;-0.57;81.88;101320.13;5952315;23;20026;-85
2024/01/20 05:34:07;;;;;;;22.90;12.63;;;;;;;-0.62;82.08;101329.78;5976468;23;20356;-85
2024/01/20 05:36:33;;;;;;;29.45;13.75;;;;;;;-0.60;82.13;101332.38;5975081;23;20031;-85
2024/01/20 05:39:00;;;;;;;34.92;13.95;;;;;;;-0.66;82.34;101331.59;5975420;23;20034;-84
2024/01/20 05:41:27;;;;;;;27.23;13.95;;;;;;;-0.61;82.73;101330.63;5953482;23;20022;-84
2024/01/20 05:43:54;;;;;;;33.33;12.73;;;;;;;-0.64;82.80;101328.09;5974713;23;20043;-85
2024/01/20 05:46:20;;;;;;;27.67;11.70;;;;;;;-0.64;82.37;101325.47;5976276;23;20047;-85
2024/01/20 05:48:47;;;;;;;25.98;12.90;;;;;;;-0.62;82.26;101331.53;5998298;23;20116;-85
2024/01/20 05:51:14;;;;;;;27.67;13.32;;;;;;;-0.60;82.41;101325.41;5975861;23;20043;-85
2024/01/20 05:53:41;;;;;;;25.95;11.93;;;;;;;-0.58;82.00;101335.81;5976109;23;20310;-85
2024/01/20 05:56:08;;;;;;;27.60;13.18;;;;;;;-0.67;81.66;101336.81;5952381;23;20028;-85
2024/01/20 05:58:35;;;;;;;30.98;12.55;;;;;;;-0.64;82.26;101338.53;5974416;23;20369;-85
2024/01/20 06:01:02;;;;;;;29.13;13.98;;;;;;;-0.64;82.72;101341.97;5975661;23;20023;-84
2024/01/20 06:03:29;;;;;;;27.88;13.63;;;;;;;-0.66;82.17;101349.84;5929925;23;20095;-85
2024/01/20 06:05:56;;;;;;;32.60;16.02;;;;;;;-0.71;82.72;101351.69;5975265;23;20059;-85
2024/01/20 06:08:23;;;;;;;32.00;15.18;;;;;;;-0.73;82.29;101353.47;5999078;23;20020;-85
2024/01/20 06:10:51;;;;;;;30.42;15.43;;;;;;;-0.65;82.62;101361.16;5952099;23;20071;-84
2024/01/20 06:13:18;;;;;;;35.67;16.08;;;;;;;-0.66;82.57;101354.22;5977501;23;20695;-85
2024/01/20 06:15:45;;;;;;;29.80;14.60;;;;;;;-0.64;82.38;101370.69;5976952;23;20024;-85
2024/01/20 06:18:12;;;;;;;32.50;13.98;;;;;;;-0.60;82.01;101369.75;5976926;23;20038;-85
2024/01/20 06:20:39;;;;;;;33.80;14.80;;;;;;;-0.70;82.63;101366.44;5977086;23;20083;-85
2024/01/20 06:23:05;;;;;;;30.33;13.98;;;;;;;-0.60;82.84;101369.75;5977856;23;20718;-84
2024/01/20 06:25:32;;;;;;;29.90;14.60;;;;;;;-0.61;82.73;101368.03;5976922;23;20131;-85
2024/01/20 06:27:59;;;;;;;28.20;13.63;;;;;;;-0.62;82.86;101366.31;5954093;23;20094;-84
2024/01/20 06:30:25;;;;;;;26.27;14.32;;;;;;;-0.62;82.77;101368.91;5976821;23;20034;-85
2024/01/20 06:32:52;;;;;;;25.67;13.52;;;;;;;-0.60;82.59;101363.69;5976977;23;20056;-84
2024/01/20 06:35:19;;;;;;;30.67;14.07;;;;;;;-0.56;82.56;101368.81;5977110;23;20023;-85
2024/01/20 06:37:46;;;;;;;30.42;14.93;;;;;;;-0.57;82.73;101380.13;6000273;23;20027;-85
2024/01/20 06:40:13;;;;;;;32.03;13.48;;;;;;;-0.57;81.92;101380.13;5976625;23;20378;-84
2024/01/20 06:42:40;;;;;;;28.73;14.00;;;;;;;-0.61;82.65;101375.88;6002949;23;20649;-84
2024/01/20 06:45:07;;;;;;;27.13;14.52;;;;;;;-0.58;82.15;101388.84;5976723;23;20344;-84
2024/01/20 06:47:34;;;;;;;36.85;15.65;;;;;;;-0.57;81.95;101384.50;6000251;23;20366;-85
2024/01/20 06:50:02;;;;;;;27.40;14.07;;;;;;;-0.61;81.90;101386.31;5977251;23;20038;-84
2024/01/20 06:52:31;;;;;;;30.38;15.10;;;;;;;-0.60;82.08;101390.63;5953752;23;20051;-84
2024/01/20 06:54:58;;;;;;;34.78;14.30;;;;;;;-0.66;82.09;101396.81;5954301;23;20019;-84
2024/01/20 06:57:24;;;;;;;31.83;14.45;;;;;;;-0.63;82.47;101395.91;5953955;23;20137;-84
2024/01/20 06:59:51;;;;;;;35.28;14.35;;;;;;;-0.62;82.31;101391.53;5975903;23;20020;-84
2024/01/20 07:02:18;;;;;;;30.70;14.55;;;;;;;-0.63;82.39;101401.13;5976865;23;20031;-84
2024/01/20 07:04:44;;;;;;;34.83;16.58;;;;;;;-0.62;82.22;101415.03;5976824;23;20052;-84
2024/01/20 07:07:12;;;;;;;29.08;14.32;;;;;;;-0.63;82.21;101418.53;5954280;23;20023;-84
2024/01/20 07:09:42;;;;;;;29.52;14.63;;;;;;;-0.67;82.66;101415.09;5975665;23;20036;-84
2024/01/20 07:12:09;;;;;;;32.75;15.10;;;;;;;-0.67;82.52;101422.91;5977094;23;20099;-84
2024/01/20 07:14:35;;;;;;;35.55;16.50;;;;;;;-0.64;82.48;101433.28;5977393;23;20024;-84
2024/01/20 07:17:05;;;;;;;32.83;16.83;;;;;;;-0.72;83.31;101435.16;5954488;23;20103;-84
2024/01/20 07:19:31;;;;;;;32.08;15.80;;;;;;;-0.69;83.35;101433.41;5975533;23;20103;-85
2024/01/20 07:21:58;;;;;;;34.22;16.48;;;;;;;-0.68;83.41;101440.31;5954336;23;20087;-84
2024/01/20 07:24:27;;;;;;;33.03;15.70;;;;;;;-0.72;83.30;101433.41;5953449;23;20122;-84
2024/01/20 07:26:55;;;;;;;35.00;17.33;;;;;;;-0.71;83.54;101432.56;5977111;23;20054;-85
2024/01/20 07:29:23;;;;;;;47.95;18.75;;;;;;;-0.74;83.93;101436.94;5975441;23;20030;-84
2024/01/20 07:31:50;;;;;;;40.95;18.20;;;;;;;-0.67;83.94;101442.03;5999208;23;20044;-85
2024/01/20 07:34:17;;;;;;;36.85;16.50;;;;;;;-0.62;83.61;101444.56;5931235;23;20106;-84
2024/01/20 07:36:44;;;;;;;36.80;16.00;;;;;;;-0.64;83.16;101441.13;5953772;23;20034;-84
2024/01/20 07:39:11;;;;;;;35.55;15.45;;;;;;;-0.62;82.88;101441.97;5976153;23;20441;-84
2024/01/20 07:41:38;;;;;;;34.83;16.38;;;;;;;-0.63;83.46;101442.84;5999297;23;20039;-84
2024/01/20 07:44:05;;;;;;;33.95;14.27;;;;;;;-0.66;83.09;101454.19;5952962;23;20035;-84
2024/01/20 07:46:31;;;;;;;38.90;19.42;;;;;;;-0.67;83.30;101455.06;5976471;23;20344;-83
2024/01/20 07:48:58;;;;;;;36.65;18.30;;;;;;;-0.61;83.33;101455.84;5952145;23;20035;-84
2024/01/20 07:51:25;;;;;;;36.35;15.93;;;;;;;-0.59;83.27;101459.31;5976297;23;20062;-84
2024/01/20 07:53:52;;;;;;;35.47;15.10;;;;;;;-0.56;83.22;101469.69;5975988;23;20716;-84
2024/01/20 07:56:18;;;;;;;35.13;15.30;;;;;;;-0.59;82.84;101477.56;5998847;23;20471;-84
2024/01/20 07:58:45;;;;;;;35.20;16.02;;;;;;;-0.58;82.91;101476.72;5999351;23;20406;-84
2024/01/20 08:01:12;;;;;;;38.38;16.45;;;;;;;-0.58;82.97;101476.72;5975449;23;20663;-85
2024/01/20 08:03:39;;;;;;;36.85;17.00;;;;;;;-0.66;82.74;101471.63;5999117;23;20517;-85
2024/01/20 08:06:07;;;;;;;33.95;15.80;;;;;;;-0.60;82.70;101479.31;5953947;23;20080;-84
2024/01/20 08:08:33;;;;;;;34.83;16.20;;;;;;;-0.59;82.56;101474.97;5977439;23;20027;-85
2024/01/20 08:11:00;;;;;;;35.80;15.38;;;;;;;-0.60;82.57;101473.25;5976856;23;20444;-85
2024/01/20 08:13:27;;;;;;;32.38;15.57;;;;;;;-0.67;82.20;101469.88;5977465;23;20338;-84
2024/01/20 08:15:54;;;;;;;38.75;17.08;;;;;;;-0.70;82.69;101468.16;5953273;23;20031;-84
2024/01/20 08:18:20;;;;;;;36.17;17.20;;;;;;;-0.68;83.07;101466.41;5976679;23;20032;-84
2024/01/20 08:20:48;;;;;;;30.42;16.05;;;;;;;-0.63;83.01;101474.16;5975536;23;20102;-84
2024/01/20 08:23:14;;;;;;;37.97;17.17;;;;;;;-0.61;83.15;101477.63;5976237;23;20103;-86
2024/01/20 08:25:41;;;;;;;35.95;16.90;;;;;;;-0.57;83.20;101488.84;5952755;23;20051;-85
2024/01/20 08:28:08;;;;;;;35.38;16.23;;;;;;;-0.58;82.58;101500.19;5952635;23;20445;-86
2024/01/20 08:30:35;;;;;;;37.88;16.45;;;;;;;-0.56;82.24;101494.06;5952701;23;20023;-82
2024/01/20 08:33:03;;;;;;;31.08;15.70;;;;;;;-0.58;82.42;101500.19;5999894;23;20028;-82
2024/01/20 08:35:32;;;;;;;42.35;17.60;;;;;;;-0.54;82.84;101499.22;5976369;23;20020;-82
2024/01/20 08:37:59;;;;;;;39.72;16.80;;;;;;;-0.52;82.28;101494.84;5977012;23;20031;-81
2024/01/20 08:40:26;;;;;;;32.55;17.05;;;;;;;-0.56;82.45;101490.56;5999145;23;20016;-82
2024/01/20 08:42:52;;;;;;;32.80;16.10;;;;;;;-0.54;81.92;101496.63;5999527;23;20378;-82
2024/01/20 08:45:19;;;;;;;41.53;17.52;;;;;;;-0.55;82.08;101498.38;5999404;23;20398;-82
2024/01/20 08:47:46;;;;;;;42.67;18.70;;;;;;;-0.47;82.85;101499.13;5975868;23;20031;-82
2024/01/20 08:50:13;;;;;;;42.50;19.00;;;;;;;-0.46;82.83;101503.47;5998814;23;20087;-82
2024/01/20 08:52:39;;;;;;;36.67;17.23;;;;;;;-0.48;82.80;101496.53;5951213;23;20034;-82
2024/01/20 08:55:07;;;;;;;37.80;18.08;;;;;;;-0.44;83.11;101499.06;5998997;23;20095;-82
2024/01/20 08:57:33;;;;;;;37.40;17.63;;;;;;;-0.39;83.21;101503.34;5999236;23;20083;-82
2024/01/20 09:00:00;;;;;;;37.92;18.10;;;;;;;-0.40;83.12;101502.50;5974807;23;20771;-82
2024/01/20 09:02:27;;;;;;;36.90;17.63;;;;;;;-0.42;81.60;101499.03;6000064;23;20134;-82
2024/01/20 09:04:54;;;;;;;35.80;17.73;;;;;;;-0.35;81.55;101500.66;5975033;23;20660;-82
2024/01/20 09:07:21;;;;;;;38.17;17.58;;;;;;;-0.34;82.00;101514.56;5999088;23;20028;-82
2024/01/20 09:09:48;;;;;;;37.13;16.05;;;;;;;-0.37;81.67;101509.41;5975605;23;20080;-82
2024/01/20 09:12:14;;;;;;;38.65;18.02;;;;;;;-0.33;81.15;101518.91;5952465;23;20024;-82
2024/01/20 09:14:41;;;;;;;37.20;17.25;;;;;;;-0.35;81.65;101524.16;5975484;23;20031;-82
2024/01/20 09:17:08;;;;;;;40.28;19.27;;;;;;;-0.37;81.62;101528.53;5976676;23;20099;-82
2024/01/20 09:19:35;;;;;;;37.58;17.73;;;;;;;-0.33;81.34;101518.91;5974338;23;20030;-82
2024/01/20 09:22:02;;;;;;;38.63;17.88;;;;;;;-0.34;80.83;101522.41;5952081;23;21494;-82
2024/01/20 09:24:29;;;;;;;34.75;17.48;;;;;;;-0.33;80.86;101531.94;5975066;23;20100;-82
2024/01/20 09:26:55;;;;;;;38.35;19.42;;;;;;;-0.30;81.03;101537.16;5974057;23;20020;-82
2024/01/20 09:29:22;;;;;;;35.25;17.08;;;;;;;-0.31;81.32;101527.56;5998964;23;20027;-83
2024/01/20 09:31:49;;;;;;;36.38;18.30;;;;;;;-0.24;81.39;101534.41;5999088;23;20027;-84
2024/01/20 09:34:16;;;;;;;38.78;17.98;;;;;;;-0.27;81.04;101530.13;5975033;23;20028;-83
2024/01/20 09:36:43;;;;;;;36.53;17.90;;;;;;;-0.29;80.82;101536.25;5999252;23;20341;-82
2024/01/20 09:39:12;;;;;;;40.53;18.90;;;;;;;-0.34;80.21;101543.28;5970207;23;20079;-82
2024/01/20 09:41:39;;;;;;;41.97;18.77;;;;;;;-0.34;79.50;101553.72;5947671;23;20419;-82
2024/01/20 09:44:07;;;;;;;42.17;19.10;;;;;;;-0.32;80.48;101551.97;5948487;23;20031;-82
2024/01/20 09:46:34;;;;;;;43.10;18.50;;;;;;;-0.31;80.67;101553.69;5971726;23;20441;-82
2024/01/20 09:49:00;;;;;;;39.92;18.88;;;;;;;-0.32;80.21;101551.97;5925893;23;20068;-83
2024/01/20 09:51:28;;;;;;;39.08;17.80;;;;;;;-0.35;80.47;101542.44;5948245;23;20032;-82
2024/01/20 09:53:58;;;;;;;41.17;17.88;;;;;;;-0.32;80.06;101544.13;5949902;23;20019;-82
2024/01/20 09:56:26;;;;;;;38.03;17.73;;;;;;;-0.33;79.94;101531.94;5950199;23;20027;-82
2024/01/20 09:58:56;;;;;;;39.10;17.50;;;;;;;-0.36;78.92;101542.44;5971480;23;20028;-86
2024/01/20 10:01:24;;;;;;;39.15;18.23;;;;;;;-0.32;79.38;101544.97;5949997;23;20394;-85
2024/01/20 10:03:51;;;;;;;40.15;18.65;;;;;;;-0.28;79.74;101548.41;5971907;23;20379;-86
2024/01/20 10:06:18;;;;;;;38.95;18.25;;;;;;;-0.29;79.94;101555.38;5973171;23;20101;-86
2024/01/20 10:08:45;;;;;;;42.33;18.33;;;;;;;-0.25;80.22;101553.59;5926135;23;20047;-86
2024/01/20 10:11:11;;;;;;;38.35;18.13;;;;;;;-0.21;79.97;101542.19;5926638;23;20028;-84
2024/01/20 10:13:38;;;;;;;36.75;17.02;;;;;;;-0.17;80.46;101543.88;5949677;23;20031;-86
2024/01/20 10:16:05;;;;;;;38.25;17.90;;;;;;;-0.20;80.13;101543.06;5949331;23;20024;-86
2024/01/20 10:18:33;;;;;;;37.03;17.75;;;;;;;-0.14;80.27;101546.44;5972294;23;20457;-83
2024/01/20 10:21:01;;;;;;;41.05;17.65;;;;;;;-0.09;80.41;101543.75;5972963;23;20035;-82
2024/01/20 10:23:28;;;;;;;39.13;17.83;;;;;;;-0.11;80.17;101540.28;5953546;23;20672;-82
2024/01/20 10:26:01;;;;;;;34.97;17.17;;;;;;;-0.12;79.48;101542.06;5954278;23;20032;-83
2024/01/20 10:28:28;;;;;;;41.97;19.75;;;;;;;-0.13;79.59;101535.09;5950002;23;20048;-82
2024/01/20 10:30:56;;;;;;;37.13;18.48;;;;;;;-0.13;79.37;101535.09;5948878;23;20399;-82
2024/01/20 10:33:23;;;;;;;41.05;18.25;;;;;;;-0.11;79.21;101533.31;5926389;23;20023;-82
2024/01/20 10:35:51;;;;;;;41.90;19.50;;;;;;;-0.13;79.59;101535.09;5977439;23;20051;-82
2024/01/20 10:38:20;;;;;;;36.95;17.52;;;;;;;-0.16;79.93;101536.91;6000950;23;20020;-82
2024/01/20 10:40:52;;;;;;;37.08;17.33;;;;;;;-0.17;79.19;101540.41;5954787;23;20028;-82
2024/01/20 10:43:20;;;;;;;45.72;19.30;;;;;;;-0.18;79.34;101541.28;5977901;23;20027;-84
2024/01/20 10:46:26;;;;;;;44.42;20.58;;;;;;;-0.26;78.69;101544.03;6000082;23;20020;-84
2024/01/20 10:48:54;;;;;;;44.65;20.17;;;;;;;-0.13;79.87;101537.69;5974917;23;20485;-85
2024/01/20 10:51:27;;;;;;;46.97;20.65;;;;;;;-0.13;79.23;101532.47;5976770;23;20348;-87
2024/01/20 10:53:56;;;;;;;38.25;17.63;;;;;;;-0.12;79.53;101528.16;5977038;23;20621;-87
2024/01/20 10:56:26;;;;;;;40.03;17.10;;;;;;;-0.14;79.23;101535.13;5977365;23;20020;-87
2024/01/20 10:59:12;;;;;;;39.47;18.77;;;;;;;-0.17;78.42;101543.88;5953657;23;20032;-87
2024/01/20 11:01:44;;;;;;;40.63;19.10;;;;;;;-0.11;79.53;101546.38;5976463;23;20030;-87
2024/01/20 11:04:17;;;;;;;40.80;18.88;;;;;;;-0.16;78.42;101553.44;5976894;23;20038;-86
2024/01/20 11:06:44;;;;;;;43.10;19.52;;;;;;;-0.12;79.07;101547.28;5976127;23;20027;-87
2024/01/20 11:09:19;;;;;;;42.20;18.83;;;;;;;-0.16;78.05;101552.56;5953252;23;20032;-87